createdAt,value
2023-04-21T00:00:50.769Z,514.00
2023-04-21T00:01:50.817Z,515.00
2023-04-21T00:02:51.050Z,514.00
2023-04-21T00:03:51.086Z,515.00
2023-04-21T00:04:51.111Z,515.00
2023-04-21T00:05:51.166Z,515.00
2023-04-21T00:06:51.035Z,515.00
2023-04-21T00:07:51.083Z,514.00
2023-04-21T00:08:51.199Z,514.00
2023-04-21T00:09:51.199Z,514.00
2023-04-21T00:10:51.266Z,519.00
2023-04-21T00:11:51.313Z,518.00
2023-04-21T00:12:51.362Z,515.00
2023-04-21T00:13:51.403Z,512.00
2023-04-21T00:14:51.458Z,513.00
2023-04-21T00:15:51.608Z,511.00
2023-04-21T00:16:51.545Z,510.00
2023-04-21T00:17:51.638Z,507.00
2023-04-21T00:18:51.657Z,507.00
2023-04-21T00:19:51.737Z,508.00
2023-04-21T00:20:51.767Z,507.00
2023-04-21T00:21:52.581Z,507.00
2023-04-21T00:22:51.887Z,507.00
2023-04-21T00:23:51.952Z,510.00
2023-04-21T00:24:51.976Z,511.00
2023-04-21T00:25:52.035Z,511.00
2023-04-21T00:26:52.074Z,513.00
2023-04-21T00:27:52.159Z,513.00
2023-04-21T00:28:52.198Z,515.00
2023-04-21T00:29:52.262Z,515.00
2023-04-21T00:30:52.298Z,516.00
2023-04-21T00:31:52.339Z,519.00
2023-04-21T00:32:52.439Z,521.00
2023-04-21T00:33:52.433Z,520.00
2023-04-21T00:34:52.463Z,520.00
2023-04-21T00:35:52.515Z,518.00
2023-04-21T00:36:52.547Z,517.00
2023-04-21T00:37:52.620Z,517.00
2023-04-21T00:38:52.643Z,518.00
2023-04-21T00:39:52.744Z,518.00
2023-04-21T00:40:52.738Z,519.00
2023-04-21T00:41:58.059Z,521.00
2023-04-21T00:42:52.777Z,518.00
2023-04-21T00:43:52.781Z,517.00
2023-04-21T00:44:52.742Z,515.00
2023-04-21T00:45:52.823Z,514.00
2023-04-21T00:46:52.858Z,515.00
2023-04-21T00:47:52.984Z,515.00
2023-04-21T00:48:52.920Z,514.00
2023-04-21T00:49:52.996Z,512.00
2023-04-21T00:50:53.032Z,513.00
2023-04-21T00:51:53.059Z,513.00
2023-04-21T00:52:53.125Z,514.00
2023-04-21T00:53:53.153Z,514.00
2023-04-21T00:54:53.241Z,514.00
2023-04-21T00:55:53.253Z,516.00
2023-04-21T00:56:53.316Z,514.00
2023-04-21T00:57:53.369Z,512.00
2023-04-21T00:58:53.400Z,515.00
2023-04-21T00:59:53.425Z,513.00
2023-04-21T01:00:53.524Z,511.00
2023-04-21T01:01:53.526Z,510.00
2023-04-21T01:02:53.642Z,511.00
2023-04-21T01:03:53.782Z,510.00
2023-04-21T01:04:53.594Z,509.00
2023-04-21T01:05:53.674Z,509.00
2023-04-21T01:06:53.734Z,508.00
2023-04-21T01:07:53.762Z,508.00
2023-04-21T01:08:53.821Z,511.00
2023-04-21T01:09:53.853Z,514.00
2023-04-21T01:10:53.928Z,516.00
2023-04-21T01:11:53.973Z,515.00
2023-04-21T01:12:54.037Z,513.00
2023-04-21T01:13:54.089Z,513.00
2023-04-21T01:14:54.153Z,513.00
2023-04-21T01:15:54.161Z,514.00
2023-04-21T01:16:54.300Z,516.00
2023-04-21T01:17:54.384Z,518.00
2023-04-21T01:18:54.312Z,519.00
2023-04-21T01:19:54.348Z,519.00
2023-04-21T01:20:54.395Z,518.00
2023-04-21T01:21:54.422Z,518.00
2023-04-21T01:22:54.476Z,517.00
2023-04-21T01:23:54.541Z,518.00
2023-04-21T01:24:54.549Z,515.00
2023-04-21T01:25:54.626Z,515.00
2023-04-21T01:26:54.638Z,517.00
2023-04-21T01:27:54.706Z,518.00
2023-04-21T01:28:54.769Z,523.00
2023-04-21T01:29:54.795Z,524.00
2023-04-21T01:30:54.875Z,523.00
2023-04-21T01:31:54.922Z,525.00
2023-04-21T01:32:54.897Z,523.00
2023-04-21T01:33:54.925Z,522.00
2023-04-21T01:34:55.016Z,521.00
2023-04-21T01:35:55.024Z,523.00
2023-04-21T01:36:55.063Z,518.00
2023-04-21T01:37:55.096Z,516.00
2023-04-21T01:38:55.157Z,514.00
2023-04-21T01:39:55.219Z,512.00
2023-04-21T01:40:55.240Z,511.00
2023-04-21T01:41:55.276Z,509.00
2023-04-21T01:42:55.352Z,509.00
2023-04-21T01:43:55.404Z,505.00
2023-04-21T01:44:55.511Z,504.00
2023-04-21T01:45:55.571Z,507.00
2023-04-21T01:46:55.545Z,505.00
2023-04-21T01:47:55.661Z,507.00
2023-04-21T01:48:55.646Z,508.00
2023-04-21T01:49:55.704Z,511.00
2023-04-21T01:50:55.766Z,510.00
2023-04-21T01:51:55.817Z,509.00
2023-04-21T01:52:55.870Z,507.00
2023-04-21T01:53:55.912Z,506.00
2023-04-21T01:54:55.943Z,506.00
2023-04-21T01:55:56.005Z,507.00
2023-04-21T01:56:56.156Z,509.00
2023-04-21T01:57:56.075Z,504.00
2023-04-21T01:58:56.102Z,504.00
2023-04-21T01:59:56.178Z,505.00
2023-04-21T02:00:56.275Z,506.00
2023-04-21T02:01:56.396Z,507.00
2023-04-21T02:02:56.441Z,504.00
2023-04-21T02:03:56.401Z,505.00
2023-04-21T02:04:56.458Z,506.00
2023-04-21T02:05:56.500Z,506.00
2023-04-21T02:06:56.494Z,507.00
2023-04-21T02:07:56.464Z,508.00
2023-04-21T02:08:56.508Z,510.00
2023-04-21T02:09:56.586Z,511.00
2023-04-21T02:10:56.613Z,512.00
2023-04-21T02:11:56.650Z,507.00
2023-04-21T02:12:56.647Z,507.00
2023-04-21T02:13:56.709Z,507.00
2023-04-21T02:14:56.757Z,505.00
2023-04-21T02:16:09.524Z,503.00
2023-04-21T02:16:57.802Z,504.00
2023-04-21T02:17:56.856Z,504.00
2023-04-21T02:18:56.827Z,507.00
2023-04-21T02:19:56.789Z,508.00
2023-04-21T02:20:56.793Z,507.00
2023-04-21T02:21:56.770Z,509.00
2023-04-21T02:22:56.780Z,509.00
2023-04-21T02:23:56.729Z,509.00
2023-04-21T02:24:56.736Z,509.00
2023-04-21T02:25:56.745Z,509.00
2023-04-21T02:26:56.792Z,507.00
2023-04-21T02:27:56.967Z,507.00
2023-04-21T02:28:56.877Z,507.00
2023-04-21T02:29:56.934Z,506.00
2023-04-21T02:30:57.012Z,507.00
2023-04-21T02:32:02.949Z,509.00
2023-04-21T02:32:58.033Z,511.00
2023-04-21T02:33:57.001Z,512.00
2023-04-21T02:34:57.005Z,510.00
2023-04-21T02:35:57.020Z,509.00
2023-04-21T02:36:56.996Z,509.00
2023-04-21T02:37:56.981Z,510.00
2023-04-21T02:38:56.990Z,509.00
2023-04-21T02:39:56.948Z,510.00
2023-04-21T02:40:56.938Z,514.00
2023-04-21T02:41:56.955Z,513.00
2023-04-21T02:42:57.024Z,511.00
2023-04-21T02:43:57.061Z,509.00
2023-04-21T02:44:57.126Z,508.00
2023-04-21T02:45:57.165Z,508.00
2023-04-21T02:46:57.218Z,509.00
2023-04-21T02:47:57.320Z,507.00
2023-04-21T02:48:57.307Z,508.00
2023-04-21T02:49:57.333Z,508.00
2023-04-21T02:50:57.420Z,505.00
2023-04-21T02:51:57.450Z,504.00
2023-04-21T02:52:57.491Z,502.00
2023-04-21T02:53:57.551Z,502.00
2023-04-21T02:54:57.572Z,502.00
2023-04-21T02:55:57.615Z,503.00
2023-04-21T02:56:57.657Z,502.00
2023-04-21T02:57:57.709Z,502.00
2023-04-21T02:58:57.750Z,505.00
2023-04-21T02:59:57.826Z,507.00
2023-04-21T03:00:57.884Z,507.00
2023-04-21T03:01:57.925Z,506.00
2023-04-21T03:02:58.183Z,505.00
2023-04-21T03:03:58.193Z,506.00
2023-04-21T03:04:58.106Z,506.00
2023-04-21T03:05:58.143Z,507.00
2023-04-21T03:06:58.206Z,507.00
2023-04-21T03:07:58.247Z,505.00
2023-04-21T03:08:58.278Z,501.00
2023-04-21T03:09:58.295Z,499.00
2023-04-21T03:10:58.384Z,500.00
2023-04-21T03:11:58.433Z,501.00
2023-04-21T03:12:58.479Z,504.00
2023-04-21T03:13:58.549Z,504.00
2023-04-21T03:14:58.562Z,504.00
2023-04-21T03:15:58.653Z,502.00
2023-04-21T03:16:58.706Z,501.00
2023-04-21T03:17:58.773Z,502.00
2023-04-21T03:18:58.737Z,503.00
2023-04-21T03:19:58.814Z,507.00
2023-04-21T03:20:58.855Z,506.00
2023-04-21T03:21:58.921Z,503.00
2023-04-21T03:22:58.984Z,501.00
2023-04-21T03:23:59.012Z,499.00
2023-04-21T03:24:59.089Z,496.00
2023-04-21T03:25:59.152Z,498.00
2023-04-21T03:26:59.186Z,500.00
2023-04-21T03:27:59.248Z,501.00
2023-04-21T03:28:59.283Z,502.00
2023-04-21T03:29:59.336Z,502.00
2023-04-21T03:30:59.350Z,503.00
2023-04-21T03:31:59.497Z,505.00
2023-04-21T03:32:59.464Z,504.00
2023-04-21T03:33:59.546Z,502.00
2023-04-21T03:34:59.581Z,502.00
2023-04-21T03:35:59.620Z,503.00
2023-04-21T03:36:59.667Z,502.00
2023-04-21T03:38:00.880Z,503.00
2023-04-21T03:39:12.676Z,505.00
2023-04-21T03:40:00.784Z,504.00
2023-04-21T03:40:59.766Z,498.00
2023-04-21T03:41:59.787Z,498.00
2023-04-21T03:42:59.758Z,497.00
2023-04-21T03:43:59.736Z,500.00
2023-04-21T03:44:59.741Z,501.00
2023-04-21T03:45:59.755Z,499.00
2023-04-21T03:46:59.704Z,500.00
2023-04-21T03:47:59.785Z,501.00
2023-04-21T03:49:01.231Z,501.00
2023-04-21T03:49:59.773Z,502.00
2023-04-21T03:50:59.747Z,502.00
2023-04-21T03:51:59.759Z,503.00
2023-04-21T03:52:59.751Z,504.00
2023-04-21T03:53:59.780Z,504.00
2023-04-21T03:54:59.773Z,504.00
2023-04-21T03:55:59.723Z,503.00
2023-04-21T03:56:59.727Z,504.00
2023-04-21T03:57:59.718Z,503.00
2023-04-21T03:58:59.702Z,506.00
2023-04-21T03:59:59.695Z,504.00
2023-04-21T04:00:59.674Z,501.00
2023-04-21T04:01:59.766Z,502.00
2023-04-21T04:02:59.839Z,502.00
2023-04-21T04:03:59.839Z,504.00
2023-04-21T04:04:59.845Z,505.00
2023-04-21T04:05:59.671Z,500.00
2023-04-21T04:06:59.657Z,497.00
2023-04-21T04:07:59.655Z,496.00
2023-04-21T04:08:59.650Z,495.00
2023-04-21T04:09:59.673Z,499.00
2023-04-21T04:10:59.617Z,499.00
2023-04-21T04:11:59.612Z,497.00
2023-04-21T04:12:59.598Z,498.00
2023-04-21T04:13:59.592Z,499.00
2023-04-21T04:14:59.562Z,499.00
2023-04-21T04:15:59.627Z,499.00
2023-04-21T04:16:59.622Z,496.00
2023-04-21T04:17:59.591Z,494.00
2023-04-21T04:18:59.564Z,496.00
2023-04-21T04:19:59.575Z,496.00
2023-04-21T04:20:59.535Z,498.00
2023-04-21T04:21:59.551Z,499.00
2023-04-21T04:22:59.493Z,502.00
2023-04-21T04:23:59.526Z,500.00
2023-04-21T04:24:59.506Z,501.00
2023-04-21T04:25:59.509Z,501.00
2023-04-21T04:26:59.514Z,501.00
2023-04-21T04:27:59.473Z,497.00
2023-04-21T04:28:59.486Z,496.00
2023-04-21T04:29:59.447Z,498.00
2023-04-21T04:30:59.525Z,499.00
2023-04-21T04:31:59.468Z,502.00
2023-04-21T04:32:59.501Z,502.00
2023-04-21T04:33:59.533Z,501.00
2023-04-21T04:34:59.563Z,500.00
2023-04-21T04:35:59.640Z,501.00
2023-04-21T04:36:59.699Z,503.00
2023-04-21T04:37:59.776Z,501.00
2023-04-21T04:38:59.771Z,503.00
2023-04-21T04:39:59.819Z,504.00
2023-04-21T04:40:59.884Z,503.00
2023-04-21T04:41:59.934Z,505.00
2023-04-21T04:42:59.981Z,504.00
2023-04-21T04:44:00.850Z,504.00
2023-04-21T04:45:00.052Z,503.00
2023-04-21T04:46:00.113Z,502.00
2023-04-21T04:47:00.339Z,499.00
2023-04-21T04:48:00.229Z,497.00
2023-04-21T04:49:00.262Z,500.00
2023-04-21T04:50:00.311Z,498.00
2023-04-21T04:51:00.355Z,497.00
2023-04-21T04:52:00.384Z,498.00
2023-04-21T04:53:00.415Z,497.00
2023-04-21T04:54:00.458Z,495.00
2023-04-21T04:55:00.477Z,497.00
2023-04-21T04:56:00.563Z,498.00
2023-04-21T04:57:00.561Z,498.00
2023-04-21T04:58:00.636Z,498.00
2023-04-21T04:59:00.746Z,498.00
2023-04-21T05:00:00.731Z,500.00
2023-04-21T05:01:00.770Z,502.00
2023-04-21T05:02:00.879Z,504.00
2023-04-21T05:03:01.034Z,504.00
2023-04-21T05:04:01.117Z,504.00
2023-04-21T05:05:00.925Z,501.00
2023-04-21T05:06:00.975Z,500.00
2023-04-21T05:07:00.974Z,501.00
2023-04-21T05:08:00.961Z,505.00
2023-04-21T05:09:00.994Z,505.00
2023-04-21T05:10:01.042Z,506.00
2023-04-21T05:11:01.041Z,505.00
2023-04-21T05:12:01.052Z,502.00
2023-04-21T05:13:01.058Z,501.00
2023-04-21T05:14:01.138Z,501.00
2023-04-21T05:15:01.141Z,505.00
2023-04-21T05:16:01.163Z,506.00
2023-04-21T05:17:01.259Z,507.00
2023-04-21T05:18:01.266Z,505.00
2023-04-21T05:19:01.214Z,507.00
2023-04-21T05:20:01.285Z,509.00
2023-04-21T05:21:01.319Z,510.00
2023-04-21T05:22:01.340Z,510.00
2023-04-21T05:23:01.362Z,510.00
2023-04-21T05:24:01.404Z,507.00
2023-04-21T05:25:01.435Z,506.00
2023-04-21T05:26:04.123Z,504.00
2023-04-21T05:27:01.442Z,504.00
2023-04-21T05:28:01.428Z,505.00
2023-04-21T05:29:01.403Z,503.00
2023-04-21T05:30:01.448Z,503.00
2023-04-21T05:31:01.421Z,501.00
2023-04-21T05:32:01.517Z,499.00
2023-04-21T05:33:01.416Z,501.00
2023-04-21T05:34:01.387Z,503.00
2023-04-21T05:35:01.394Z,506.00
2023-04-21T05:36:01.402Z,510.00
2023-04-21T05:37:01.368Z,513.00
2023-04-21T05:38:01.382Z,514.00
2023-04-21T05:39:01.330Z,516.00
2023-04-21T05:40:01.392Z,519.00
2023-04-21T05:41:01.370Z,515.00
2023-04-21T05:42:01.376Z,514.00
2023-04-21T05:43:01.329Z,517.00
2023-04-21T05:44:01.348Z,518.00
2023-04-21T05:45:01.349Z,520.00
2023-04-21T05:46:01.429Z,521.00
2023-04-21T05:47:01.316Z,526.00
2023-04-21T05:48:01.374Z,602.00
2023-04-21T05:49:01.295Z,625.00
2023-04-21T05:50:01.251Z,672.00
2023-04-21T05:51:01.292Z,672.00
2023-04-21T05:52:01.331Z,675.00
2023-04-21T05:53:01.294Z,735.00
2023-04-21T05:54:01.251Z,732.00
2023-04-21T05:55:01.238Z,729.00
2023-04-21T05:56:01.222Z,731.00
2023-04-21T05:57:01.235Z,821.00
2023-04-21T05:58:01.240Z,838.00
2023-04-21T05:59:01.220Z,822.00
2023-04-21T06:00:01.200Z,715.00
2023-04-21T06:01:01.210Z,707.00
2023-04-21T06:02:01.241Z,712.00
2023-04-21T06:03:01.358Z,721.00
2023-04-21T06:04:01.511Z,739.00
2023-04-21T06:05:01.671Z,749.00
2023-04-21T06:06:01.213Z,753.00
2023-04-21T06:07:01.147Z,751.00
2023-04-21T06:08:01.206Z,746.00
2023-04-21T06:09:01.153Z,738.00
2023-04-21T06:10:01.155Z,733.00
2023-04-21T06:11:01.151Z,663.00
2023-04-21T06:12:01.233Z,640.00
2023-04-21T06:13:01.257Z,643.00
2023-04-21T06:14:01.267Z,635.00
2023-04-21T06:15:01.315Z,630.00
2023-04-21T06:16:01.445Z,619.00
2023-04-21T06:17:01.356Z,603.00
2023-04-21T06:18:01.474Z,593.00
2023-04-21T06:19:01.380Z,585.00
2023-04-21T06:20:02.236Z,579.00
2023-04-21T06:21:01.392Z,572.00
2023-04-21T06:22:01.421Z,570.00
2023-04-21T06:23:01.441Z,562.00
2023-04-21T06:24:01.449Z,558.00
2023-04-21T06:25:01.447Z,558.00
2023-04-21T06:26:01.488Z,553.00
2023-04-21T06:27:01.546Z,548.00
2023-04-21T06:28:01.548Z,544.00
2023-04-21T06:29:01.552Z,539.00
2023-04-21T06:30:01.584Z,536.00
2023-04-21T06:31:01.629Z,536.00
2023-04-21T06:32:01.756Z,534.00
2023-04-21T06:33:01.712Z,531.00
2023-04-21T06:34:01.682Z,530.00
2023-04-21T06:35:01.758Z,531.00
2023-04-21T06:36:01.814Z,532.00
2023-04-21T06:37:01.810Z,529.00
2023-04-21T06:38:01.822Z,525.00
2023-04-21T06:39:01.899Z,522.00
2023-04-21T06:40:01.882Z,520.00
2023-04-21T06:41:01.925Z,517.00
2023-04-21T06:42:01.946Z,514.00
2023-04-21T06:43:02.000Z,511.00
2023-04-21T06:44:02.028Z,511.00
2023-04-21T06:45:02.080Z,509.00
2023-04-21T06:46:02.126Z,506.00
2023-04-21T06:47:02.186Z,505.00
2023-04-21T06:48:02.226Z,503.00
2023-04-21T06:49:02.223Z,503.00
2023-04-21T06:50:02.273Z,502.00
2023-04-21T06:51:02.314Z,500.00
2023-04-21T06:52:02.354Z,499.00
2023-04-21T06:53:02.438Z,501.00
2023-04-21T06:54:02.443Z,509.00
2023-04-21T06:55:02.468Z,525.00
2023-04-21T06:56:02.537Z,581.00
2023-04-21T06:57:02.580Z,590.00
2023-04-21T06:58:02.585Z,594.00
2023-04-21T06:59:02.639Z,602.00
2023-04-21T07:00:02.675Z,636.00
2023-04-21T07:01:02.661Z,667.00
2023-04-21T07:02:02.772Z,780.00
2023-04-21T07:03:02.765Z,837.00
2023-04-21T07:04:02.805Z,905.00
2023-04-21T07:05:02.813Z,948.00
2023-04-21T07:06:02.846Z,995.00
2023-04-21T07:07:03.494Z,1049.00
2023-04-21T07:08:02.877Z,1085.00
2023-04-21T07:09:02.927Z,1134.00
2023-04-21T07:10:02.924Z,1168.00
2023-04-21T07:11:02.935Z,880.00
2023-04-21T07:12:03.046Z,710.00
2023-04-21T07:13:03.061Z,609.00
2023-04-21T07:14:03.086Z,586.00
2023-04-21T07:15:03.108Z,570.00
2023-04-21T07:16:03.129Z,559.00
2023-04-21T07:17:03.258Z,548.00
2023-04-21T07:18:03.242Z,541.00
2023-04-21T07:19:03.248Z,528.00
2023-04-21T07:20:03.315Z,522.00
2023-04-21T07:21:03.306Z,521.00
2023-04-21T07:22:03.330Z,526.00
2023-04-21T07:23:03.326Z,529.00
2023-04-21T07:24:03.340Z,535.00
2023-04-21T07:25:03.384Z,548.00
2023-04-21T07:26:03.350Z,560.00
2023-04-21T07:27:03.428Z,580.00
2023-04-21T07:28:03.506Z,580.00
2023-04-21T07:29:03.534Z,662.00
2023-04-21T07:30:03.534Z,763.00
2023-04-21T07:31:03.878Z,782.00
2023-04-21T07:32:03.588Z,797.00
2023-04-21T07:33:03.668Z,817.00
2023-04-21T07:34:03.685Z,895.00
2023-04-21T07:35:03.673Z,908.00
2023-04-21T07:36:03.726Z,1019.00
2023-04-21T07:37:03.773Z,1044.00
2023-04-21T07:38:03.782Z,1307.00
2023-04-21T07:39:03.783Z,1301.00
2023-04-21T07:40:03.833Z,1279.00
2023-04-21T07:41:03.902Z,1288.00
2023-04-21T07:42:03.925Z,1312.00
2023-04-21T07:43:04.252Z,1589.00
2023-04-21T07:44:04.313Z,1601.00
2023-04-21T07:45:04.216Z,1575.00
2023-04-21T07:46:04.096Z,1563.00
2023-04-21T07:47:04.096Z,1566.00
2023-04-21T07:48:04.178Z,1562.00
2023-04-21T07:49:04.306Z,1571.00
2023-04-21T07:50:04.171Z,1583.00
2023-04-21T07:51:04.143Z,1588.00
2023-04-21T07:52:04.181Z,1611.00
2023-04-21T07:53:04.200Z,1627.00
2023-04-21T07:54:04.226Z,1635.00
2023-04-21T07:55:04.258Z,1632.00
2023-04-21T07:56:04.256Z,1633.00
2023-04-21T07:57:04.290Z,1632.00
2023-04-21T07:58:04.278Z,1631.00
2023-04-21T07:59:04.342Z,1627.00
2023-04-21T08:00:04.339Z,1626.00
2023-04-21T08:01:04.348Z,1626.00
2023-04-21T08:02:04.383Z,1631.00
2023-04-21T08:03:04.436Z,1634.00
2023-04-21T08:04:04.482Z,1637.00
2023-04-21T08:05:04.532Z,1641.00
2023-04-21T08:06:04.890Z,1651.00
2023-04-21T08:07:04.558Z,1656.00
2023-04-21T08:08:04.962Z,1665.00
2023-04-21T08:09:04.457Z,1673.00
2023-04-21T08:10:04.508Z,1682.00
2023-04-21T08:11:04.483Z,1709.00
2023-04-21T08:12:04.539Z,1773.00
2023-04-21T08:13:04.523Z,1773.00
2023-04-21T08:14:04.563Z,1769.00
2023-04-21T08:15:04.558Z,1774.00
2023-04-21T08:16:04.614Z,1771.00
2023-04-21T08:17:04.628Z,1768.00
2023-04-21T08:18:04.759Z,1775.00
2023-04-21T08:19:04.710Z,1774.00
2023-04-21T08:20:04.754Z,1773.00
2023-04-21T08:21:04.859Z,1772.00
2023-04-21T08:22:04.824Z,1772.00
2023-04-21T08:23:04.944Z,1772.00
2023-04-21T08:24:04.942Z,1782.00
2023-04-21T08:25:04.991Z,1785.00
2023-04-21T08:26:05.228Z,1792.00
2023-04-21T08:27:05.073Z,1796.00
2023-04-21T08:28:05.129Z,1803.00
2023-04-21T08:29:05.159Z,1810.00
2023-04-21T08:30:05.200Z,1813.00
2023-04-21T08:31:05.292Z,1814.00
2023-04-21T08:32:05.456Z,1821.00
2023-04-21T08:33:05.374Z,1829.00
2023-04-21T08:34:05.440Z,1838.00
2023-04-21T08:35:05.501Z,1844.00
2023-04-21T08:36:12.223Z,1843.00
2023-04-21T08:37:06.515Z,1847.00
2023-04-21T08:38:05.489Z,1854.00
2023-04-21T08:39:05.539Z,1857.00
2023-04-21T08:40:05.470Z,1853.00
2023-04-21T08:41:05.487Z,1858.00
2023-04-21T08:42:05.466Z,1866.00
2023-04-21T08:43:05.464Z,1877.00
2023-04-21T08:44:05.470Z,1927.00
2023-04-21T08:45:05.424Z,1913.00
2023-04-21T08:46:05.494Z,1741.00
2023-04-21T08:47:05.470Z,1732.00
2023-04-21T08:48:05.539Z,1759.00
2023-04-21T08:49:12.605Z,1333.00
2023-04-21T08:50:05.527Z,1503.00
2023-04-21T08:51:05.534Z,1122.00
2023-04-21T08:52:05.545Z,1387.00
2023-04-21T08:53:05.527Z,1050.00
2023-04-21T08:54:05.541Z,892.00
2023-04-21T08:55:05.501Z,882.00
2023-04-21T08:56:11.257Z,863.00
2023-04-21T08:57:15.458Z,750.00
2023-04-21T08:58:06.507Z,865.00
2023-04-21T08:59:05.521Z,889.00
2023-04-21T09:00:07.945Z,917.00
2023-04-21T09:01:05.501Z,963.00
2023-04-21T09:02:05.536Z,1004.00
2023-04-21T09:03:10.675Z,1036.00
2023-04-21T09:04:06.602Z,1083.00
2023-04-21T09:05:05.648Z,1101.00
2023-04-21T09:06:05.843Z,1111.00
2023-04-21T09:07:05.437Z,1150.00
2023-04-21T09:08:05.416Z,1197.00
2023-04-21T09:09:05.382Z,1212.00
2023-04-21T09:10:05.424Z,1264.00
2023-04-21T09:11:05.399Z,1293.00
2023-04-21T09:12:05.372Z,1359.00
2023-04-21T09:13:05.383Z,1369.00
2023-04-21T09:14:05.356Z,1383.00
2023-04-21T09:15:05.375Z,1397.00
2023-04-21T09:16:08.311Z,1462.00
2023-04-21T09:17:05.493Z,1476.00
2023-04-21T09:18:05.403Z,1514.00
2023-04-21T09:19:05.363Z,1514.00
2023-04-21T09:20:05.345Z,1549.00
2023-04-21T09:21:06.282Z,1564.00
2023-04-21T09:22:05.328Z,1575.00
2023-04-21T09:23:05.320Z,1607.00
2023-04-21T09:24:05.296Z,1637.00
2023-04-21T09:25:05.330Z,1650.00
2023-04-21T09:26:05.289Z,1668.00
2023-04-21T09:27:05.285Z,1684.00
2023-04-21T09:28:05.260Z,1754.00
2023-04-21T09:29:05.271Z,1768.00
2023-04-21T09:30:05.260Z,1781.00
2023-04-21T09:31:05.255Z,1792.00
2023-04-21T09:32:05.280Z,1805.00
2023-04-21T09:33:13.313Z,1825.00
2023-04-21T09:34:06.239Z,1846.00
2023-04-21T09:35:05.238Z,1864.00
2023-04-21T09:36:05.230Z,1944.00
2023-04-21T09:37:05.232Z,2003.00
2023-04-21T09:38:05.228Z,2022.00
2023-04-21T09:40:05.705Z,2120.00
2023-04-21T09:41:05.174Z,2166.00
2023-04-21T09:42:05.804Z,2204.00
2023-04-21T09:43:05.188Z,2298.00
2023-04-21T09:44:05.229Z,2222.00
2023-04-21T09:46:05.240Z,2027.00
2023-04-21T09:47:05.118Z,1839.00
2023-04-21T09:48:05.193Z,1825.00
2023-04-21T09:49:05.122Z,1733.00
2023-04-21T09:50:05.143Z,1698.00
2023-04-21T09:51:24.278Z,1685.00
2023-04-21T09:52:18.708Z,1686.00
2023-04-21T09:53:06.119Z,1688.00
2023-04-21T09:54:05.707Z,1685.00
2023-04-21T09:55:05.358Z,1686.00
2023-04-21T09:56:05.374Z,1684.00
2023-04-21T09:57:05.383Z,1680.00
2023-04-21T09:58:05.442Z,1675.00
2023-04-21T09:59:05.473Z,1668.00
2023-04-21T10:00:05.474Z,1661.00
2023-04-21T10:01:05.550Z,1656.00
2023-04-21T10:02:05.745Z,1655.00
2023-04-21T10:03:05.906Z,1656.00
2023-04-21T10:04:05.777Z,1655.00
2023-04-21T10:05:05.805Z,1656.00
2023-04-21T10:06:05.800Z,1657.00
2023-04-21T10:07:05.857Z,1654.00
2023-04-21T10:08:05.848Z,1655.00
2023-04-21T10:09:05.875Z,1651.00
2023-04-21T10:10:05.905Z,1648.00
2023-04-21T10:11:05.970Z,1645.00
2023-04-21T10:12:07.809Z,1641.00
2023-04-21T10:13:06.025Z,1641.00
2023-04-21T10:14:05.978Z,1642.00
2023-04-21T10:15:05.985Z,1641.00
2023-04-21T10:16:06.034Z,1642.00
2023-04-21T10:17:05.976Z,1640.00
2023-04-21T10:18:06.105Z,1638.00
2023-04-21T10:19:05.964Z,1639.00
2023-04-21T10:20:05.928Z,1638.00
2023-04-21T10:21:05.928Z,1638.00
2023-04-21T10:22:05.935Z,1637.00
2023-04-21T10:23:05.951Z,1632.00
2023-04-21T10:24:05.916Z,1629.00
2023-04-21T10:25:05.921Z,1623.00
2023-04-21T10:26:05.891Z,1615.00
2023-04-21T10:27:05.903Z,1609.00
2023-04-21T10:28:05.923Z,1607.00
2023-04-21T10:29:05.896Z,1603.00
2023-04-21T10:30:05.851Z,1598.00
2023-04-21T10:31:05.908Z,1593.00
2023-04-21T10:32:08.512Z,1585.00
2023-04-21T10:33:06.135Z,1578.00
2023-04-21T10:34:05.868Z,1574.00
2023-04-21T10:35:05.830Z,1569.00
2023-04-21T10:36:05.841Z,1564.00
2023-04-21T10:37:05.846Z,1560.00
2023-04-21T10:38:07.028Z,1558.00
2023-04-21T10:39:05.804Z,1554.00
2023-04-21T10:40:05.806Z,1553.00
2023-04-21T10:41:05.781Z,1553.00
2023-04-21T10:42:05.802Z,1551.00
2023-04-21T10:43:05.788Z,1539.00
2023-04-21T10:44:05.822Z,1535.00
2023-04-21T10:45:05.842Z,1531.00
2023-04-21T10:46:05.841Z,1529.00
2023-04-21T10:47:05.880Z,1523.00
2023-04-21T10:48:05.892Z,1518.00
2023-04-21T10:49:05.906Z,1513.00
2023-04-21T10:50:05.920Z,1506.00
2023-04-21T10:51:05.977Z,1334.00
2023-04-21T10:52:06.015Z,1078.00
2023-04-21T10:53:05.947Z,1002.00
2023-04-21T10:54:05.977Z,1068.00
2023-04-21T10:55:06.028Z,1026.00
2023-04-21T10:56:05.992Z,952.00
2023-04-21T10:57:06.001Z,931.00
2023-04-21T10:58:06.057Z,909.00
2023-04-21T10:59:06.102Z,918.00
2023-04-21T11:00:06.113Z,848.00
2023-04-21T11:01:06.166Z,813.00
2023-04-21T11:02:06.198Z,910.00
2023-04-21T11:03:06.321Z,933.00
2023-04-21T11:04:06.392Z,998.00
2023-04-21T11:05:06.252Z,1023.00
2023-04-21T11:06:06.239Z,1031.00
2023-04-21T11:07:06.274Z,1039.00
2023-04-21T11:08:06.297Z,1035.00
2023-04-21T11:09:06.267Z,1036.00
2023-04-21T11:10:06.307Z,1041.00
2023-04-21T11:11:06.317Z,1055.00
2023-04-21T11:12:06.338Z,1059.00
2023-04-21T11:13:06.319Z,1068.00
2023-04-21T11:14:06.371Z,1080.00
2023-04-21T11:15:06.379Z,1089.00
2023-04-21T11:16:06.447Z,1096.00
2023-04-21T11:17:06.581Z,1104.00
2023-04-21T11:18:06.550Z,1116.00
2023-04-21T11:19:06.637Z,1182.00
2023-04-21T11:20:06.780Z,1198.00
2023-04-21T11:21:06.682Z,1224.00
2023-04-21T11:22:06.766Z,1308.00
2023-04-21T11:23:06.805Z,1295.00
2023-04-21T11:24:06.836Z,1397.00
2023-04-21T11:25:06.925Z,1400.00
2023-04-21T11:26:06.931Z,1329.00
2023-04-21T11:27:07.004Z,1312.00
2023-04-21T11:28:07.016Z,1361.00
2023-04-21T11:29:07.037Z,1318.00
2023-04-21T11:30:07.073Z,1327.00
2023-04-21T11:31:07.203Z,1379.00
2023-04-21T11:32:07.182Z,1358.00
2023-04-21T11:33:07.280Z,1357.00
2023-04-21T11:34:07.312Z,1343.00
2023-04-21T11:35:07.328Z,1343.00
2023-04-21T11:36:07.397Z,1468.00
2023-04-21T11:37:07.428Z,1444.00
2023-04-21T11:38:07.479Z,1383.00
2023-04-21T11:39:07.516Z,1406.00
2023-04-21T11:40:07.542Z,1415.00
2023-04-21T11:41:07.640Z,1305.00
2023-04-21T11:42:07.618Z,1196.00
2023-04-21T11:43:07.680Z,1182.00
2023-04-21T11:44:08.599Z,1213.00
2023-04-21T11:45:07.731Z,1124.00
2023-04-21T11:46:07.826Z,1247.00
2023-04-21T11:47:07.831Z,1236.00
2023-04-21T11:48:07.911Z,1237.00
2023-04-21T11:49:07.895Z,1227.00
2023-04-21T11:50:07.996Z,1134.00
2023-04-21T11:51:07.949Z,1110.00
2023-04-21T11:52:08.007Z,1120.00
2023-04-21T11:53:08.052Z,1133.00
2023-04-21T11:54:08.099Z,1125.00
2023-04-21T11:55:08.123Z,1010.00
2023-04-21T11:56:08.123Z,1019.00
2023-04-21T11:57:08.127Z,1026.00
2023-04-21T11:58:08.202Z,1037.00
2023-04-21T11:59:08.196Z,932.00
2023-04-21T12:00:08.198Z,908.00
2023-04-21T12:01:08.187Z,895.00
2023-04-21T12:02:08.198Z,900.00
2023-04-21T12:03:08.591Z,810.00
2023-04-21T12:04:08.585Z,810.00
2023-04-21T12:05:08.463Z,806.00
2023-04-21T12:06:08.333Z,789.00
2023-04-21T12:07:08.300Z,775.00
2023-04-21T12:08:08.343Z,775.00
2023-04-21T12:09:08.349Z,769.00
2023-04-21T12:10:08.389Z,767.00
2023-04-21T12:11:08.501Z,756.00
2023-04-21T12:12:08.423Z,731.00
2023-04-21T12:13:08.457Z,707.00
2023-04-21T12:14:08.482Z,700.00
2023-04-21T12:15:08.501Z,695.00
2023-04-21T12:16:08.558Z,700.00
2023-04-21T12:17:08.523Z,697.00
2023-04-21T12:18:08.897Z,695.00
2023-04-21T12:19:08.586Z,687.00
2023-04-21T12:20:08.604Z,687.00
2023-04-21T12:21:08.644Z,683.00
2023-04-21T12:22:08.650Z,672.00
2023-04-21T12:23:08.679Z,661.00